Time;durP1;ratioP1;P1;durP2;ratioP2;P2;SDS_P1;SDS_P2;PMS_P1;PMS_P2;Temp;Humidity;BMP_temperature;BMP_pressure;BME280_temperature;BME280_humidity;BME280_pressure;Samples;Min_cycle;Max_cycle;Signal;HPM_P1;HPM_P2
2021/06/20 03:14:22;;;;;;;;;;;;;;;4.79;97.52;99092.09;4312774;26;19936;-87
2021/06/20 03:16:47;;;;;;;;;;;;;;;4.79;98.35;99089.47;5019021;28;19921;-88
2021/06/20 03:19:13;;;;;;;;;;;;;;;4.86;98.38;99088.34;5018872;28;19987;-88
2021/06/20 03:21:38;;;;;;;;;;;;;;;4.82;99.09;99084.09;5021823;28;19921;-89
2021/06/20 03:24:04;;;;;;;;;;;;;;;4.77;100.00;99086.88;5020936;28;20020;-89
2021/06/20 03:26:29;;;;;;;;;;;;;;;4.89;98.95;99086.50;5002216;28;19921;-89
2021/06/20 03:28:55;;;;;;;;;;;;;;;4.95;98.63;99089.84;5001817;28;20340;-90
2021/06/20 03:31:21;;;;;;;;;;;;;;;4.87;99.38;99083.06;5018832;28;20008;-88
2021/06/20 03:33:49;;;;;;;;;;;;;;;4.98;99.04;99084.47;5019921;28;20012;-90
2021/06/20 03:36:15;;;;;;;;;;;;;;;5.03;99.03;99087.84;5019436;28;19922;-89
2021/06/20 03:38:40;;;;;;;;;;;;;;;5.06;99.64;99095.63;5020035;28;20007;-90
2021/06/20 03:41:45;;;;;;;;;;;;;;;;;;;;;
2021/06/20 03:46:59;;;;;;;;;;;;;;;;;;;;;
2021/06/20 03:49:30;;;;;;;;;;;;;;;4.95;99.67;99103.84;5012839;28;19945;-90
2021/06/20 03:51:56;;;;;;;;;;;;;;;4.93;100.00;99102.16;5011390;28;19921;-90
2021/06/20 03:54:22;;;;;;;;;;;;;;;5.00;99.35;99101.06;5010527;28;19929;-89
2021/06/20 03:56:52;;;;;;;;;;;;;;;5.02;99.35;99101.88;5010595;28;19977;-90
2021/06/20 03:59:18;;;;;;;;;;;;;;;5.00;99.55;99108.94;5012500;28;19922;-90
2021/06/20 04:01:43;;;;;;;;;;;;;;;4.97;100.00;99103.78;5013109;28;19922;-90
2021/06/20 04:04:19;;;;;;;;;;;;;;;;;;;;;
2021/06/20 04:06:47;;;;;;;;;;;;;;;4.96;100.00;99102.06;5010254;28;20285;-90
2021/06/20 04:09:15;;;;;;;;;;;;;;;4.93;100.00;99107.41;4994611;28;19926;-90
2021/06/20 04:11:51;;;;;;;;;;;;;;;;;;;;;
2021/06/20 04:14:30;;;;;;;;;;;;;;;5.00;100.00;99111.56;5012043;28;19997;-90
2021/06/20 04:17:05;;;;;;;;;;;;;;;5.05;99.87;99126.25;4998001;28;19926;-88
2021/06/20 04:19:53;;;;;;;;;;;;;;;5.13;98.78;99120.78;5011960;28;19981;-90
2021/06/20 04:22:18;;;;;;;;;;;;;;;5.09;98.89;99120.03;5001580;28;19933;-89
2021/06/20 12:54:17;;;;;;;;;;;;;;;4.64;99.59;98786.38;4272107;26;19993;-89
2021/06/20 12:56:42;;;;;;;;;;;;;;;4.66;99.15;98776.66;4962319;29;20294;-89
2021/06/20 12:59:09;;;;;;;;;;;;;;;4.71;99.33;98777.38;4964371;29;19919;-90
2021/06/20 13:01:36;;;;;;;;;;;;;;;4.68;99.21;98778.34;4947905;28;20028;-89
2021/06/20 13:04:10;;;;;;;;;;;;;;;4.76;98.68;98777.22;4947791;29;19922;-89
2021/06/20 13:06:35;;;;;;;;;;;;;;;4.59;98.64;98789.16;4965089;29;19923;-89
2021/06/20 13:09:01;;;;;;;;;;;;;;;4.66;98.07;98795.03;4947257;29;20275;-89
2021/06/20 13:11:26;;;;;;;;;;;;;;;4.55;98.49;98780.53;4946612;29;20333;-89
2021/06/20 13:14:10;;;;;;;;;;;;;;;4.48;99.27;98771.19;4945717;29;19962;-90
2021/06/20 13:16:35;;;;;;;;;;;;;;;4.55;98.83;98756.91;4960022;28;20293;-89
2021/06/20 13:19:01;;;;;;;;;;;;;;;4.60;100.00;98758.53;4962180;29;19922;-89
2021/06/20 13:21:26;;;;;;;;;;;;;;;4.67;99.51;98762.66;4962431;29;19922;-89
2021/06/20 13:23:51;;;;;;;;;;;;;;;4.60;98.97;98758.53;4962134;29;19926;-89
2021/06/20 13:26:19;;;;;;;;;;;;;;;4.66;98.09;98746.06;4962685;29;19922;-90
2021/06/20 13:28:45;;;;;;;;;;;;;;;4.67;98.14;98747.75;4962082;29;19923;-89
2021/06/20 13:31:10;;;;;;;;;;;;;;;4.56;98.31;98731.53;4961410;29;19923;-89
2021/06/20 13:33:36;;;;;;;;;;;;;;;4.52;99.35;98720.28;4944940;29;19933;-90
2021/06/20 13:36:01;;;;;;;;;;;;;;;4.62;98.47;98704.22;4961626;29;19985;-89
2021/06/20 13:38:26;;;;;;;;;;;;;;;4.62;97.96;98704.22;4945262;29;19993;-89
2021/06/20 13:40:52;;;;;;;;;;;;;;;4.52;97.70;98706.34;4961521;29;19930;-89
2021/06/20 13:43:17;;;;;;;;;;;;;;;4.51;97.06;98697.59;4961558;29;20009;-89
2021/06/20 13:45:43;;;;;;;;;;;;;;;4.47;96.59;98690.75;4945673;29;19926;-89
2021/06/20 13:48:08;;;;;;;;;;;;;;;4.42;96.79;98692.69;4961824;29;20218;-89
2021/06/20 13:50:33;;;;;;;;;;;;;;;4.48;96.58;98700.34;4961545;29;20222;-90
2021/06/20 13:53:01;;;;;;;;;;;;;;;4.40;97.42;98704.97;4961710;29;19933;-90
2021/06/20 13:55:26;;;;;;;;;;;;;;;4.45;96.72;98692.59;4961659;29;20294;-90
2021/06/20 13:57:52;;;;;;;;;;;;;;;4.51;97.48;98700.19;4961527;28;19937;-90
2021/06/20 14:00:18;;;;;;;;;;;;;;;4.43;98.86;98710.13;4961351;29;19923;-89
2021/06/20 14:02:44;;;;;;;;;;;;;;;4.45;98.52;98705.69;4960952;29;20025;-89
2021/06/20 14:05:10;;;;;;;;;;;;;;;4.60;98.33;98706.06;4960893;29;19962;-89
2021/06/20 14:07:35;;;;;;;;;;;;;;;4.58;97.62;98706.13;4961153;29;20270;-89
2021/06/20 14:10:02;;;;;;;;;;;;;;;4.41;97.85;98704.06;4961322;29;20254;-90
2021/06/20 14:12:30;;;;;;;;;;;;;;;4.60;97.46;98703.44;4944348;29;20286;-88
2021/06/20 14:14:55;;;;;;;;;;;;;;;4.45;97.30;98697.81;4960968;29;19927;-87
2021/06/20 14:17:21;;;;;;;;;;;;;;;4.48;97.39;98692.47;4960987;29;19932;-90
2021/06/20 14:19:49;;;;;;;;;;;;;;;4.49;98.45;98688.91;4961966;29;19930;-90
2021/06/20 14:22:14;;;;;;;;;;;;;;;4.42;98.66;98682.19;4961094;29;19926;-90
2021/06/20 14:24:39;;;;;;;;;;;;;;;4.54;98.62;98696.63;4944243;29;20342;-89
2021/06/20 14:27:05;;;;;;;;;;;;;;;4.55;98.99;98707.06;4960891;29;19933;-90
2021/06/20 14:29:30;;;;;;;;;;;;;;;4.51;99.64;98700.19;4944292;29;19969;-89
2021/06/20 14:31:56;;;;;;;;;;;;;;;4.59;98.38;98704.34;4961040;29;19922;-89
2021/06/20 14:34:21;;;;;;;;;;;;;;;4.59;98.89;98706.97;4960956;29;19934;-90
2021/06/20 14:36:46;;;;;;;;;;;;;;;4.57;98.97;98720.13;4961291;29;19922;-90
2021/06/20 19:16:41;;;;;;;;;;;;;;;4.69;100.00;98653.22;6343274;22;19911;-92
